createdAt,value
2018-04-23T00:02:42.648Z,91.90
2018-04-23T00:05:46.445Z,91.70
2018-04-23T00:08:49.655Z,92.20
2018-04-23T00:11:52.831Z,91.80
2018-04-23T00:14:56.011Z,91.80
2018-04-23T00:17:59.219Z,91.80
2018-04-23T00:21:02.377Z,92.00
2018-04-23T00:24:06.324Z,92.00
2018-04-23T00:27:09.483Z,91.90
2018-04-23T00:30:12.712Z,91.90
2018-04-23T00:33:15.854Z,91.80
2018-04-23T00:36:19.830Z,92.30
2018-04-23T00:39:23.020Z,92.20
2018-04-23T00:42:27.125Z,92.50
2018-04-23T00:45:30.269Z,92.80
2018-04-23T00:48:34.269Z,93.10
2018-04-23T00:51:37.429Z,93.00
2018-04-23T00:54:40.620Z,93.00
2018-04-23T00:57:43.814Z,93.30
2018-04-23T01:00:47.023Z,93.80
2018-04-23T01:03:50.205Z,93.30
2018-04-23T01:06:53.339Z,93.50
2018-04-23T01:09:56.520Z,93.90
2018-04-23T01:13:01.537Z,94.50
2018-04-23T01:16:04.750Z,94.20
2018-04-23T01:19:07.899Z,94.40
2018-04-23T01:22:11.071Z,94.40
2018-04-23T01:25:14.289Z,94.40
2018-04-23T01:28:17.511Z,94.10
2018-04-23T01:31:23.148Z,94.60
2018-04-23T01:34:26.297Z,94.50
2018-04-23T01:37:30.230Z,94.40
2018-04-23T01:40:33.387Z,94.40
2018-04-23T01:43:37.750Z,94.50
2018-04-23T01:46:40.923Z,94.30
2018-04-23T01:49:44.101Z,94.60
2018-04-23T01:52:47.263Z,94.70
2018-04-23T01:55:50.444Z,95.20
2018-04-23T01:58:53.614Z,95.40
2018-04-23T02:01:56.778Z,95.00
2018-04-23T02:05:00.736Z,94.80
2018-04-23T02:08:03.935Z,94.80
2018-04-23T02:11:07.112Z,95.10
2018-04-23T02:14:11.381Z,95.10
2018-04-23T02:17:14.570Z,95.10
2018-04-23T02:20:18.571Z,94.90
2018-04-23T02:23:22.738Z,95.00
2018-04-23T02:26:26.648Z,95.00
2018-04-23T02:29:29.836Z,94.90
2018-04-23T02:32:33.751Z,94.60
2018-04-23T02:35:37.036Z,94.50
2018-04-23T02:38:40.213Z,94.80
2018-04-23T02:41:43.376Z,94.90
2018-04-23T02:44:47.067Z,95.20
2018-04-23T02:47:50.212Z,94.40
2018-04-23T02:50:53.387Z,94.60
2018-04-23T02:53:56.561Z,95.00
2018-04-23T02:56:59.722Z,95.00
2018-04-23T03:00:02.900Z,94.70
2018-04-23T03:03:06.100Z,95.20
2018-04-23T03:06:10.087Z,94.90
2018-04-23T03:09:14.539Z,94.30
2018-04-23T03:12:18.488Z,94.30
2018-04-23T03:15:22.385Z,94.30
2018-04-23T03:18:34.271Z,94.50
2018-04-23T03:21:42.058Z,94.30
2018-04-23T03:24:45.253Z,94.00
2018-04-23T03:27:49.180Z,94.50
2018-04-23T03:30:52.373Z,94.40
2018-04-23T03:33:55.559Z,94.50
2018-04-23T03:36:58.752Z,94.30
2018-04-23T03:40:02.684Z,94.60
2018-04-23T03:43:05.909Z,94.50
2018-04-23T03:46:09.105Z,94.50
2018-04-23T03:49:12.282Z,94.90
2018-04-23T03:52:15.866Z,94.70
2018-04-23T03:55:19.010Z,94.30
2018-04-23T03:58:22.266Z,94.80
2018-04-23T04:01:25.741Z,94.70
2018-04-23T04:04:29.801Z,94.80
2018-04-23T04:07:33.087Z,94.80
2018-04-23T04:10:36.262Z,95.10
2018-04-23T04:13:51.376Z,95.50
2018-04-23T04:16:57.474Z,94.90
2018-04-23T04:20:01.264Z,95.00
2018-04-23T04:23:04.696Z,96.20
2018-04-23T04:26:09.457Z,97.30
2018-04-23T04:29:12.604Z,97.20
2018-04-23T04:32:16.558Z,97.40
2018-04-23T04:35:20.501Z,97.40
2018-04-23T04:38:23.738Z,96.90
2018-04-23T04:41:26.902Z,97.40
2018-04-23T04:44:30.120Z,98.00
2018-04-23T04:47:33.314Z,98.10
2018-04-23T04:50:37.733Z,98.20
2018-04-23T04:53:40.910Z,97.80
2018-04-23T04:56:44.274Z,98.40
2018-04-23T04:59:47.470Z,98.90
2018-04-23T05:02:50.724Z,98.80
2018-04-23T05:05:53.942Z,98.50
2018-04-23T05:08:57.822Z,98.40
2018-04-23T05:12:01.772Z,97.80
2018-04-23T05:15:04.932Z,97.70
2018-04-23T05:18:08.189Z,97.60
2018-04-23T05:21:12.236Z,97.10
2018-04-23T05:24:15.415Z,97.00
2018-04-23T05:27:18.621Z,96.70
2018-04-23T05:30:23.156Z,96.80
2018-04-23T05:33:27.515Z,96.90
2018-04-23T05:36:30.669Z,96.90
2018-04-23T05:39:33.921Z,96.40
2018-04-23T05:42:37.081Z,95.40
2018-04-23T05:45:40.430Z,94.70
2018-04-23T05:48:43.590Z,94.90
2018-04-23T05:51:50.231Z,95.90
2018-04-23T05:54:53.451Z,94.70
2018-04-23T05:57:57.464Z,94.70
2018-04-23T06:01:00.932Z,95.30
2018-04-23T06:04:04.142Z,95.50
2018-04-23T06:07:07.382Z,95.10
2018-04-23T06:10:11.350Z,94.80
2018-04-23T06:13:14.522Z,94.80
2018-04-23T06:16:17.706Z,94.80
2018-04-23T06:19:21.412Z,95.20
2018-04-23T06:22:25.414Z,96.30
2018-04-23T06:25:28.615Z,96.20
2018-04-23T06:28:31.761Z,96.60
2018-04-23T06:31:35.625Z,96.40
2018-04-23T06:34:39.005Z,96.30
2018-04-23T06:37:42.233Z,95.80
2018-04-23T06:40:45.441Z,96.20
2018-04-23T06:43:48.635Z,95.90
2018-04-23T06:46:51.864Z,95.60
2018-04-23T06:49:55.836Z,96.00
2018-04-23T06:52:59.028Z,96.40
2018-04-23T06:56:02.230Z,96.40
2018-04-23T06:59:05.447Z,96.80
2018-04-23T07:02:08.633Z,96.60
2018-04-23T07:05:11.883Z,96.50
2018-04-23T07:08:14.980Z,96.00
2018-04-23T07:11:18.204Z,96.10
2018-04-23T07:14:21.536Z,95.80
2018-04-23T07:17:24.743Z,96.20
2018-04-23T07:20:29.041Z,96.50
2018-04-23T07:23:32.256Z,96.50
2018-04-23T07:26:36.319Z,96.80
2018-04-23T07:29:39.788Z,96.60
2018-04-23T07:32:43.037Z,96.70
2018-04-23T07:35:46.204Z,96.70
2018-04-23T07:38:50.134Z,96.00
2018-04-23T07:41:53.320Z,96.00
2018-04-23T07:44:56.527Z,94.70
2018-04-23T07:47:59.744Z,91.80
2018-04-23T07:51:02.938Z,78.80
2018-04-23T07:54:06.356Z,72.60
2018-04-23T07:57:10.451Z,78.30
2018-04-23T08:00:13.705Z,78.10
2018-04-23T08:03:17.005Z,79.80
2018-04-23T08:06:20.249Z,74.30
2018-04-23T08:09:24.221Z,60.50
2018-04-23T08:12:27.435Z,60.40
2018-04-23T08:15:30.637Z,60.70
2018-04-23T08:18:34.646Z,59.90
2018-04-23T08:21:37.993Z,59.80
2018-04-23T08:24:42.159Z,60.60
2018-04-23T08:27:45.366Z,60.50
2018-04-23T08:30:48.563Z,58.30
2018-04-23T08:33:51.773Z,53.70
2018-04-23T08:36:55.730Z,54.10
2018-04-23T08:39:59.031Z,54.10
2018-04-23T08:43:02.262Z,54.90
2018-04-23T08:46:06.234Z,56.20
2018-04-23T08:49:09.422Z,56.10
2018-04-23T08:52:12.637Z,54.90
2018-04-23T08:55:15.820Z,52.80
2018-04-23T08:58:19.139Z,53.50
2018-04-23T09:01:22.401Z,53.20
2018-04-23T09:04:25.551Z,54.90
2018-04-23T09:07:29.326Z,55.00
2018-04-23T09:10:33.818Z,58.40
2018-04-23T09:13:37.013Z,58.40
2018-04-23T09:16:40.224Z,62.80
2018-04-23T09:19:43.382Z,66.40
2018-04-23T09:22:46.537Z,70.60
2018-04-23T09:25:49.940Z,71.10
2018-04-23T09:28:53.121Z,71.70
2018-04-23T09:31:56.273Z,70.90
2018-04-23T09:34:59.480Z,65.50
2018-04-23T09:38:02.651Z,62.70
2018-04-23T09:41:05.803Z,58.30
2018-04-23T09:44:08.968Z,59.20
2018-04-23T09:47:12.133Z,56.90
2018-04-23T09:50:15.337Z,54.00
2018-04-23T09:53:19.264Z,49.60
2018-04-23T09:56:22.453Z,49.50
2018-04-23T09:59:26.391Z,50.00
2018-04-23T10:02:29.659Z,50.00
2018-04-23T10:05:32.871Z,48.80
2018-04-23T10:08:36.167Z,47.40
2018-04-23T10:11:39.361Z,43.60
2018-04-23T10:14:42.528Z,44.20
2018-04-23T10:17:46.452Z,44.70
2018-04-23T10:20:49.642Z,44.60
2018-04-23T10:23:52.844Z,46.60
2018-04-23T10:26:56.048Z,46.00
2018-04-23T10:29:59.554Z,47.00
2018-04-23T10:33:03.551Z,45.20
2018-04-23T10:36:06.780Z,45.10
2018-04-23T10:39:10.098Z,46.60
2018-04-23T10:42:13.449Z,45.50
2018-04-23T10:45:16.638Z,46.50
2018-04-23T10:48:19.945Z,50.60
2018-04-23T10:51:23.150Z,47.10
2018-04-23T10:54:26.439Z,48.00
2018-04-23T10:57:29.744Z,47.50
2018-04-23T11:00:33.043Z,48.70
2018-04-23T11:03:36.346Z,47.00
2018-04-23T11:06:39.777Z,47.20
2018-04-23T11:09:43.119Z,48.80
2018-04-23T11:12:46.304Z,47.60
2018-04-23T11:15:49.567Z,48.10
2018-04-23T11:18:52.716Z,49.60
2018-04-23T11:21:55.914Z,48.60
2018-04-23T11:24:59.128Z,50.00
2018-04-23T11:28:02.354Z,47.30
2018-04-23T11:31:05.629Z,47.80
2018-04-23T11:34:11.222Z,46.00
2018-04-23T11:37:14.455Z,45.80
2018-04-23T11:40:17.666Z,47.80
2018-04-23T11:43:21.707Z,49.00
2018-04-23T11:46:24.972Z,48.80
2018-04-23T11:49:28.158Z,48.50
2018-04-23T11:52:31.390Z,48.50
2018-04-23T11:55:34.570Z,48.50
2018-04-23T11:58:37.891Z,49.50
2018-04-23T12:01:41.088Z,50.00
2018-04-23T12:04:45.094Z,51.70
2018-04-23T12:07:48.313Z,52.70
2018-04-23T12:10:51.564Z,51.40
2018-04-23T12:13:54.723Z,52.30
2018-04-23T12:16:57.926Z,53.10
2018-04-23T12:20:01.118Z,52.60
2018-04-23T12:23:04.319Z,54.20
2018-04-23T12:26:07.518Z,51.60
2018-04-23T12:29:10.702Z,52.90
2018-04-23T12:32:13.885Z,51.60
2018-04-23T12:35:17.043Z,50.70
2018-04-23T12:38:20.274Z,50.30
2018-04-23T12:41:23.437Z,51.60
2018-04-23T12:44:26.631Z,51.50
2018-04-23T12:47:29.781Z,51.80
2018-04-23T12:50:32.987Z,53.60
2018-04-23T12:53:36.180Z,52.90
2018-04-23T12:56:39.416Z,54.10
2018-04-23T12:59:42.696Z,53.60
2018-04-23T13:02:45.936Z,50.60
2018-04-23T13:05:49.289Z,51.90
2018-04-23T13:08:52.623Z,50.50
2018-04-23T13:11:56.154Z,49.80
2018-04-23T13:14:59.381Z,50.30
2018-04-23T13:18:02.649Z,48.20
2018-04-23T13:21:05.861Z,50.60
2018-04-23T13:24:09.160Z,50.40
2018-04-23T13:27:12.493Z,50.00
2018-04-23T13:30:16.489Z,51.60
2018-04-23T13:33:20.720Z,53.50
2018-04-23T13:36:23.994Z,53.20
2018-04-23T13:39:27.299Z,52.20
2018-04-23T13:42:30.620Z,51.60
2018-04-23T13:45:34.618Z,50.90
2018-04-23T13:48:38.093Z,52.00
2018-04-23T13:51:41.416Z,51.60
2018-04-23T13:54:44.804Z,51.00
2018-04-23T14:01:01.113Z,49.90
2018-04-23T14:04:05.157Z,50.00
2018-04-23T14:07:08.428Z,49.80
2018-04-23T14:10:11.717Z,48.60
2018-04-23T14:13:14.999Z,48.20
2018-04-23T14:16:19.103Z,47.80
2018-04-23T14:19:22.350Z,47.40
2018-04-23T14:22:25.655Z,46.30
2018-04-23T14:25:28.952Z,46.20
2018-04-23T14:28:33.035Z,46.00
2018-04-23T14:31:36.367Z,45.80
2018-04-23T14:34:40.561Z,46.10
2018-04-23T14:37:44.588Z,46.70
2018-04-23T14:40:48.007Z,46.40
2018-04-23T14:43:51.355Z,46.70
2018-04-23T14:46:55.904Z,46.40
2018-04-23T14:49:59.503Z,45.90
2018-04-23T14:53:02.919Z,46.70
2018-04-23T14:56:06.316Z,45.80
2018-04-23T14:59:09.682Z,45.70
2018-04-23T15:02:13.900Z,46.00
2018-04-23T15:05:17.359Z,45.60
2018-04-23T15:08:20.700Z,46.30
2018-04-23T15:11:24.069Z,46.70
2018-04-23T15:14:27.428Z,46.30
2018-04-23T15:17:31.671Z,47.50
2018-04-23T15:20:34.964Z,47.20
2018-04-23T15:23:39.255Z,47.50
2018-04-23T15:26:42.517Z,47.10
2018-04-23T15:29:46.709Z,47.60
2018-04-23T15:32:50.026Z,47.60
2018-04-23T15:35:54.048Z,45.80
2018-04-23T15:38:57.205Z,45.80
2018-04-23T15:42:00.395Z,45.30
2018-04-23T15:45:03.612Z,46.30
2018-04-23T15:48:06.853Z,47.00
2018-04-23T15:51:10.900Z,49.30
2018-04-23T15:54:14.094Z,49.30
2018-04-23T15:57:17.344Z,49.20
2018-04-23T16:00:20.534Z,49.40
2018-04-23T16:03:24.575Z,49.40
2018-04-23T16:06:27.791Z,49.10
2018-04-23T16:09:31.772Z,49.30
2018-04-23T16:12:34.964Z,49.20
2018-04-23T16:15:38.260Z,49.10
2018-04-23T16:18:41.455Z,49.50
2018-04-23T16:21:44.688Z,49.10
2018-04-23T16:24:47.837Z,48.80
2018-04-23T16:27:51.071Z,49.00
2018-04-23T16:30:54.251Z,49.60
2018-04-23T16:33:58.544Z,50.40
2018-04-23T16:37:02.512Z,50.10
2018-04-23T16:40:05.711Z,50.10
2018-04-23T16:43:09.684Z,50.60
2018-04-23T16:46:13.730Z,50.00
2018-04-23T16:49:16.917Z,50.10
2018-04-23T16:52:20.115Z,50.00
2018-04-23T16:55:23.391Z,49.80
2018-04-23T16:58:26.563Z,49.10
2018-04-23T17:01:30.008Z,49.10
2018-04-23T17:04:34.095Z,49.40
2018-04-23T17:07:37.293Z,49.70
2018-04-23T17:10:40.657Z,48.90
2018-04-23T17:13:43.844Z,46.10
2018-04-23T17:16:47.045Z,46.70
2018-04-23T17:19:50.243Z,46.70
2018-04-23T17:22:55.012Z,46.50
2018-04-23T17:25:58.233Z,46.50
2018-04-23T17:29:01.448Z,46.50
2018-04-23T17:32:05.424Z,46.50
2018-04-23T17:35:09.096Z,46.50
2018-04-23T17:38:12.313Z,47.00
2018-04-23T17:41:17.078Z,47.50
2018-04-23T17:44:20.237Z,47.50
2018-04-23T17:47:23.455Z,48.20
2018-04-23T17:50:26.773Z,49.50
2018-04-23T17:53:30.030Z,48.60
2018-04-23T17:56:33.207Z,48.30
2018-04-23T17:59:36.711Z,48.80
2018-04-23T18:02:40.019Z,48.10
2018-04-23T18:05:43.950Z,48.80
2018-04-23T18:08:47.138Z,48.50
2018-04-23T18:11:50.330Z,48.00
2018-04-23T18:14:53.495Z,48.00
2018-04-23T18:17:56.701Z,49.00
2018-04-23T18:20:59.915Z,49.50
2018-04-23T18:24:03.069Z,49.90
2018-04-23T18:27:06.217Z,54.40
2018-04-23T18:30:09.384Z,51.50
2018-04-23T18:33:12.562Z,52.50
2018-04-23T18:36:15.717Z,52.90
2018-04-23T18:39:20.203Z,55.00
2018-04-23T18:42:23.359Z,54.90
2018-04-23T18:45:26.543Z,56.20
2018-04-23T18:48:29.717Z,57.90
2018-04-23T18:51:33.779Z,59.90
2018-04-23T18:54:36.974Z,59.80
2018-04-23T18:57:40.232Z,60.70
2018-04-23T19:00:43.391Z,61.00
2018-04-23T19:03:46.579Z,62.20
2018-04-23T19:06:49.716Z,62.50
2018-04-23T19:09:53.822Z,63.00
2018-04-23T19:12:56.975Z,64.00
2018-04-23T19:16:00.149Z,63.90
2018-04-23T19:19:03.334Z,64.70
2018-04-23T19:22:06.479Z,67.10
2018-04-23T19:25:10.649Z,68.20
2018-04-23T19:28:14.799Z,69.00
2018-04-23T19:31:18.765Z,69.90
2018-04-23T19:34:21.986Z,69.80
2018-04-23T19:37:25.188Z,70.60
2018-04-23T19:40:29.134Z,71.30
2018-04-23T19:43:32.291Z,74.00
2018-04-23T19:46:36.936Z,72.60
2018-04-23T19:49:41.344Z,74.00
2018-04-23T19:52:45.426Z,76.50
2018-04-23T19:55:48.702Z,76.30
2018-04-23T19:58:51.955Z,76.50
2018-04-23T20:01:55.266Z,77.40
2018-04-23T20:04:58.609Z,78.20
2018-04-23T20:08:02.286Z,76.90
2018-04-23T20:11:05.528Z,78.80
2018-04-23T20:14:08.877Z,80.50
2018-04-23T20:17:12.873Z,80.90
2018-04-23T20:20:16.115Z,80.70
2018-04-23T20:23:20.137Z,80.70
2018-04-23T20:26:23.394Z,80.60
2018-04-23T20:29:26.584Z,81.60
2018-04-23T20:32:30.052Z,83.30
2018-04-23T20:35:33.243Z,83.10
2018-04-23T20:38:36.794Z,85.20
2018-04-23T20:41:40.059Z,85.40
2018-04-23T20:44:43.246Z,85.70
2018-04-23T20:47:46.454Z,86.60
2018-04-23T20:50:50.424Z,86.80
2018-04-23T20:53:53.615Z,86.80
2018-04-23T20:56:56.791Z,85.20
2018-04-23T20:59:59.981Z,86.80
2018-04-23T21:03:03.183Z,86.20
2018-04-23T21:06:06.387Z,86.20
2018-04-23T21:09:09.563Z,87.50
2018-04-23T21:12:14.044Z,87.50
2018-04-23T21:15:18.329Z,89.80
2018-04-23T21:18:21.685Z,89.50
2018-04-23T21:21:24.947Z,88.40
2018-04-23T21:24:28.182Z,88.40
2018-04-23T21:27:31.426Z,89.30
2018-04-23T21:30:34.654Z,89.00
2018-04-23T21:33:38.844Z,90.80
2018-04-23T21:36:42.055Z,90.50
2018-04-23T21:39:45.212Z,90.20
2018-04-23T21:42:48.391Z,90.90
2018-04-23T21:45:51.604Z,90.40
2018-04-23T21:48:54.831Z,90.80
2018-04-23T21:51:58.021Z,90.50
2018-04-23T21:55:02.016Z,90.50
2018-04-23T21:58:05.209Z,90.50
2018-04-23T22:01:08.411Z,90.50
2018-04-23T22:04:11.628Z,90.30
2018-04-23T22:07:14.810Z,90.10
2018-04-23T22:10:18.037Z,90.50
2018-04-23T22:13:22.582Z,90.70
2018-04-23T22:16:25.851Z,91.10
2018-04-23T22:19:29.069Z,90.90
2018-04-23T22:22:32.267Z,91.30
2018-04-23T22:25:35.436Z,91.40
2018-04-23T22:28:38.628Z,90.90
2018-04-23T22:31:42.577Z,91.40
2018-04-23T22:34:45.743Z,91.40
2018-04-23T22:37:49.675Z,91.60
2018-04-23T22:40:52.868Z,91.50
2018-04-23T22:43:56.033Z,91.70
2018-04-23T22:46:59.199Z,91.90
2018-04-23T22:50:02.352Z,91.50
2018-04-23T22:53:05.536Z,91.90
2018-04-23T22:56:08.712Z,91.50
2018-04-23T22:59:11.933Z,91.70
2018-04-23T23:02:15.141Z,91.80
2018-04-23T23:05:18.294Z,92.10
2018-04-23T23:08:21.505Z,92.20
2018-04-23T23:11:24.672Z,92.40
2018-04-23T23:14:28.644Z,92.60
2018-04-23T23:17:32.128Z,92.50
2018-04-23T23:20:35.305Z,92.30
2018-04-23T23:23:38.594Z,92.90
2018-04-23T23:26:41.877Z,93.20
2018-04-23T23:29:45.187Z,93.00
2018-04-23T23:32:48.378Z,92.60
2018-04-23T23:35:51.538Z,92.80
2018-04-23T23:38:54.720Z,93.20
2018-04-23T23:41:57.931Z,93.10
2018-04-23T23:45:01.115Z,93.20
2018-04-23T23:48:05.085Z,93.30
2018-04-23T23:51:08.998Z,93.70
2018-04-23T23:54:12.173Z,93.60
2018-04-23T23:57:16.103Z,93.80
